Washington Dulles International Airport
KIAD : now visible

Airfield :











YOU CAN JOIN US ON...

 
LOGIN :

Register | Disclaimer

   EN    FR    IT 

 









Legend :    VFR   Marginal VFR   IFR   Intensive IFR   Very Intensive IFR
Visi :
Ceiling :
>= 8 km
>= 3000ft
5 to 8 km
1000 to 3000 ft
1500m to 5 km
500 to 1000 ft
800 to 1500m
200 to 500 ft
< 800m
< 200 ft
Symbols :   Thunderstorms  Fog  Heavy snow  Heavy precipitations  Wind > 20 kt






- Airport Elevation : 312 ft
- IATA code : IAD


KIAD - Washington Dulles International

CURRENT METAR :
  • 212352Z 12005KT 10SM CLR 21/18 A3022 RMK AO2 SLP230 T02060183 10267 20206 53013

EXPIRED METARs :
  • 212252Z 11004KT 10SM FEW070 22/19 A3020 RMK AO2 SLP226 T02220189
  • 212152Z 16006KT 10SM CLR 24/18 A3019 RMK AO2 SLP220 T02440183

TAF KIAD
Valid from the 22 at 00:00 until the 23 at 06:00 UTC


212323Z 2200/2306 15005KT P6SM FEW080
FM220600 VRB03KT 3SM BR SCT250
FM220900 00000KT 1/2SM FG BKN015
FM221100 00000KT 1SM BR BKN050
FM221400 00000KT 6SM BR BKN010
FM221600 00000KT P6SM BKN050
KZDC FIR / North America



MET'MAP, your aeronautical weather chart ! - Copyright ORBIFLY December 2007 - Disclaimer

ORBIFLY MET'MAP TEAM :

Programming & Development : Alexandra Zaïnal
Concept & original design : Baudouin d'Aumeries
Assistance for programming : Marc-Olivier Méhu
Technical & hardware support : Manuel Goepfert

Contact : metmap@orbifly.com




SOURCES & CREDITS :

   NOAA       Earth
Advisory